Time;durP1;ratioP1;P1;durP2;ratioP2;P2;SDS_P1;SDS_P2;PMS_P1;PMS_P2;Temp;Humidity;BMP_temperature;BMP_pressure;BME280_temperature;BME280_humidity;BME280_pressure;Samples;Min_cycle;Max_cycle;Signal;HPM_P1;HPM_P2
2022/01/12 00:00:54;;;;;;;81.47;39.90;;;;;;;2.13;82.88;103130.06;5108377;28;20305;-65
2022/01/12 00:03:21;;;;;;;78.03;39.35;;;;;;;2.26;82.66;103122.00;5129920;27;20042;-65
2022/01/12 00:05:49;;;;;;;80.50;41.25;;;;;;;2.28;82.61;103128.09;5110910;27;20052;-64
2022/01/12 00:08:16;;;;;;;80.45;40.70;;;;;;;2.42;82.05;103115.41;5102119;28;20078;-65
2022/01/12 00:10:44;;;;;;;81.80;41.50;;;;;;;2.39;81.85;103113.91;5109045;28;20047;-65
2022/01/12 00:13:11;;;;;;;80.30;40.88;;;;;;;2.43;81.90;103112.47;5112082;28;20387;-65
2022/01/12 00:15:39;;;;;;;78.75;38.83;;;;;;;2.45;81.07;103109.53;5102382;28;20052;-65
2022/01/12 00:18:06;;;;;;;76.63;39.80;;;;;;;2.24;82.58;103119.50;5111350;28;20047;-65
2022/01/12 00:20:34;;;;;;;76.95;39.08;;;;;;;2.37;82.50;103113.28;5116572;28;20048;-65
2022/01/12 00:23:01;;;;;;;75.28;39.53;;;;;;;2.30;82.08;103113.22;5108324;28;20399;-65
2022/01/12 00:25:32;;;;;;;78.55;40.70;;;;;;;2.11;83.33;103108.50;5090025;28;20070;-65
2022/01/12 00:33:38;;;;;;;86.50;41.13;;;;;;;2.20;83.97;103130.94;5097110;28;20056;-66
2022/01/12 00:36:05;;;;;;;80.32;40.10;;;;;;;2.49;83.28;103124.44;5097871;28;20044;-66
2022/01/12 00:38:33;;;;;;;83.50;41.22;;;;;;;2.50;82.29;103123.38;5101949;27;20058;-65
2022/01/12 00:41:00;;;;;;;83.78;40.60;;;;;;;2.44;82.30;103110.59;5109931;28;20048;-64
2022/01/12 00:43:30;;;;;;;85.55;40.72;;;;;;;2.33;82.82;103127.47;5100286;28;20605;-64
2022/01/12 00:45:57;;;;;;;81.75;40.97;;;;;;;2.46;82.61;103139.25;5090006;28;20043;-65
2022/01/12 00:48:25;;;;;;;99.47;45.28;;;;;;;2.30;83.46;103126.81;5115970;27;20441;-65
2022/01/12 00:50:53;;;;;;;86.40;42.25;;;;;;;2.43;83.14;103133.38;5117967;28;20411;-64
2022/01/12 00:53:20;;;;;;;86.00;41.30;;;;;;;2.60;82.43;103129.31;5114136;28;20054;-65
2022/01/12 00:55:47;;;;;;;86.43;42.25;;;;;;;2.66;81.83;103136.63;5111198;28;20054;-66
2022/01/12 00:58:15;;;;;;;90.20;41.92;;;;;;;2.49;82.16;103146.19;5099461;28;20078;-64
2022/01/12 01:00:42;;;;;;;86.57;43.53;;;;;;;2.67;81.72;103146.50;5115261;28;20485;-65
2022/01/12 01:03:10;;;;;;;88.15;41.95;;;;;;;2.63;81.78;103153.38;5122795;27;20051;-65
2022/01/12 01:05:39;;;;;;;87.00;40.95;;;;;;;2.53;82.62;103152.91;5129223;27;20044;-65
2022/01/12 01:08:06;;;;;;;85.55;43.17;;;;;;;2.40;82.29;103156.38;5079179;28;20049;-65
2022/01/12 01:13:03;;;;;;;87.13;41.20;;;;;;;2.35;82.78;103174.34;5105912;28;20119;-65
2022/01/12 01:26:36;;;;;;;82.20;39.92;;;;;;;2.45;82.91;103181.09;5114359;28;20054;-64
2022/01/12 01:29:03;;;;;;;81.95;39.30;;;;;;;2.55;82.05;103183.44;5107522;28;20055;-64
2022/01/12 01:31:33;;;;;;;88.28;42.38;;;;;;;2.23;82.66;103193.91;5087386;28;20055;-64
2022/01/12 01:34:13;;;;;;;87.32;41.50;;;;;;;2.19;83.15;103197.25;5109686;28;20050;-65
2022/01/12 01:36:49;;;;;;;89.85;40.55;;;;;;;2.33;83.23;103201.75;5097527;28;20044;-64
2022/01/12 01:39:21;;;;;;;85.95;41.50;;;;;;;2.13;83.85;103208.91;5082666;28;20051;-64
2022/01/12 01:41:57;;;;;;;92.75;40.58;;;;;;;2.30;84.14;103211.13;5100630;28;20126;-64
2022/01/12 01:55:23;;;;;;;81.95;40.28;;;;;;;2.77;81.01;103204.91;5101562;28;20052;-65
2022/01/12 01:57:52;;;;;;;82.97;40.72;;;;;;;2.61;81.81;103205.28;5084501;28;20517;-67
2022/01/12 02:00:23;;;;;;;84.75;40.92;;;;;;;2.82;81.41;103207.06;5098404;28;20056;-65
2022/01/12 02:02:56;;;;;;;80.55;41.03;;;;;;;2.63;81.32;103200.47;5104414;27;20459;-65
2022/01/12 02:05:34;;;;;;;84.78;40.50;;;;;;;2.47;82.15;103203.50;5087702;28;20376;-65
2022/01/12 02:08:02;;;;;;;76.75;39.80;;;;;;;2.36;82.75;103206.78;5111771;28;20039;-64
2022/01/12 02:10:34;;;;;;;88.72;43.25;;;;;;;2.16;83.72;103201.19;5109873;27;20050;-65
2022/01/12 02:13:02;;;;;;;87.88;42.55;;;;;;;2.11;84.40;103194.69;5115505;28;20430;-64
2022/01/12 02:15:30;;;;;;;85.95;41.55;;;;;;;2.20;84.11;103188.03;5091230;28;20056;-64
2022/01/12 02:40:11;;;;;;;83.53;41.70;;;;;;;2.72;83.40;103166.59;5094305;28;20063;-65
2022/01/12 02:42:43;;;;;;;80.28;41.47;;;;;;;2.90;82.50;103171.50;5112824;28;20287;-64
2022/01/12 02:53:42;;;;;;;81.95;40.10;;;;;;;2.87;82.20;103153.72;5114295;27;20203;-65
2022/01/12 02:56:18;;;;;;;79.40;40.00;;;;;;;2.66;82.46;103144.81;5104725;27;20051;-64
2022/01/12 02:58:46;;;;;;;78.95;41.03;;;;;;;2.56;83.29;103137.03;5094199;28;20494;-64
2022/01/12 03:01:48;;;;;;;79.88;39.60;;;;;;;2.62;83.05;103143.53;5093971;28;20511;-64
2022/01/12 03:04:12;;;;;;;85.57;42.20;;;;;;;2.33;84.18;103158.22;5135310;27;20059;-64
2022/01/12 03:06:42;;;;;;;82.38;41.70;;;;;;;2.61;83.54;103155.47;5135157;27;20169;-64
2022/01/12 03:09:10;;;;;;;81.13;41.08;;;;;;;2.47;83.54;103161.88;5095699;28;20048;-64
2022/01/12 03:11:38;;;;;;;87.80;42.33;;;;;;;2.26;84.39;103160.06;5101632;28;20039;-64
2022/01/12 03:14:12;;;;;;;85.72;40.95;;;;;;;2.54;83.95;103177.19;5098217;28;20051;-64
2022/01/12 03:16:41;;;;;;;86.38;41.03;;;;;;;2.59;83.61;103180.16;5116353;28;20519;-65
2022/01/12 03:19:15;;;;;;;85.72;40.53;;;;;;;2.74;83.23;103190.88;5126328;27;20054;-65
2022/01/12 03:21:42;;;;;;;83.28;40.92;;;;;;;2.59;82.79;103188.31;5135802;28;20401;-64
2022/01/12 03:24:11;;;;;;;82.50;41.15;;;;;;;2.90;82.96;103187.81;5078185;28;20048;-64
2022/01/12 03:26:38;;;;;;;81.22;41.17;;;;;;;2.91;81.85;103192.25;5093770;28;20055;-64
2022/01/12 03:29:06;;;;;;;85.70;39.53;;;;;;;2.82;81.94;103190.72;5112525;28;20047;-65
2022/01/12 03:31:35;;;;;;;82.85;40.13;;;;;;;2.78;81.94;103189.44;5115238;28;20051;-65
2022/01/12 03:34:41;;;;;;;86.07;39.58;;;;;;;2.65;82.17;103189.41;5095207;28;20047;-65
2022/01/12 03:39:44;;;;;;;79.40;38.10;;;;;;;2.45;83.19;103202.00;5079178;28;20407;-65
2022/01/12 03:42:14;;;;;;;;;;;;;;;2.50;83.35;103186.78;5097317;28;20039;-64
2022/01/12 03:44:41;;;;;;;82.93;38.58;;;;;;;2.63;83.24;103191.47;5114195;28;19919;-63
2022/01/12 03:47:08;;;;;;;86.97;40.47;;;;;;;2.77;82.96;103193.22;5115400;28;20043;-65
2022/01/12 03:49:36;;;;;;;76.78;38.42;;;;;;;2.82;82.64;103175.25;5112740;28;20082;-64
2022/01/12 03:52:03;;;;;;;82.18;39.75;;;;;;;2.89;82.11;103181.56;5100627;28;20047;-65
2022/01/12 03:54:31;;;;;;;83.97;39.80;;;;;;;2.76;82.39;103196.97;5128749;28;20090;-64
2022/01/12 03:56:59;;;;;;;83.15;37.70;;;;;;;2.89;81.94;103210.66;5115758;28;20044;-63
2022/01/12 03:59:28;;;;;;;87.00;39.28;;;;;;;2.97;81.62;103200.44;5093526;28;20056;-64
2022/01/12 04:01:55;;;;;;;86.60;38.80;;;;;;;2.96;81.28;103214.25;5078492;28;20058;-64
2022/01/12 04:04:31;;;;;;;89.32;40.90;;;;;;;2.85;81.69;103221.09;5134807;28;20050;-65
2022/01/12 04:09:46;;;;;;;88.55;39.45;;;;;;;2.67;82.12;103230.84;5113252;28;20055;-65
2022/01/12 04:12:16;;;;;;;87.95;40.17;;;;;;;2.79;82.77;103231.97;5111549;28;20051;-65
2022/01/12 04:14:44;;;;;;;81.78;38.88;;;;;;;2.85;82.02;103234.72;5103307;28;20048;-64
2022/01/12 04:17:11;;;;;;;85.75;38.65;;;;;;;2.82;82.00;103242.44;5113916;28;20055;-64
2022/01/12 04:19:43;;;;;;;85.97;37.80;;;;;;;2.84;82.25;103248.53;5113398;28;20654;-64
2022/01/12 04:24:57;;;;;;;88.30;39.80;;;;;;;2.90;81.86;103254.00;5105674;28;20055;-66
2022/01/12 04:27:24;;;;;;;82.28;39.08;;;;;;;2.87;81.83;103254.41;5100087;28;20047;-65
2022/01/12 04:29:51;;;;;;;84.68;39.63;;;;;;;2.80;82.22;103249.97;5102047;28;20047;-63
2022/01/12 04:32:20;;;;;;;90.55;42.40;;;;;;;2.82;82.04;103258.78;5109206;28;20494;-64
2022/01/12 04:34:48;;;;;;;87.82;40.17;;;;;;;2.93;81.56;103258.22;5110517;28;20074;-64
2022/01/12 04:37:15;;;;;;;87.25;40.05;;;;;;;2.82;82.10;103264.22;5105254;28;20032;-64
2022/01/12 04:39:43;;;;;;;95.50;40.03;;;;;;;2.75;82.40;103274.22;5116353;28;20043;-64
2022/01/12 04:42:11;;;;;;;88.72;39.60;;;;;;;2.83;82.59;103260.44;5106082;28;20055;-65
2022/01/12 04:44:44;;;;;;;90.45;40.30;;;;;;;2.82;82.16;103264.22;5107959;28;20048;-64
2022/01/12 04:47:27;;;;;;;86.35;39.95;;;;;;;3.19;81.36;103280.13;5102794;28;20048;-64
2022/01/12 04:49:56;;;;;;;83.88;38.80;;;;;;;3.29;80.83;103267.81;5116372;28;20047;-65
2022/01/12 04:52:25;;;;;;;87.22;39.72;;;;;;;3.53;79.85;103274.59;5096562;28;20040;-64
2022/01/12 04:54:52;;;;;;;87.68;41.45;;;;;;;3.18;81.15;103265.66;5118225;27;20059;-65
2022/01/12 04:57:22;;;;;;;99.70;44.28;;;;;;;2.44;83.53;103263.72;5084970;28;20078;-65
2022/01/12 05:00:04;;;;;;;102.70;45.47;;;;;;;2.42;86.02;103262.25;5105939;28;20055;-65
2022/01/12 05:08:24;;;;;;;107.55;46.15;;;;;;;2.49;86.40;103279.47;5095382;28;20399;-65
2022/01/12 05:13:39;;;;;;;102.07;43.47;;;;;;;2.45;86.51;103286.34;5112303;28;20407;-64
2022/01/12 05:16:10;;;;;;;116.15;48.15;;;;;;;2.45;86.59;103284.47;5107411;28;20047;-64
2022/01/12 05:18:40;;;;;;;109.93;45.25;;;;;;;2.17;86.87;103297.19;5095959;28;20063;-65
2022/01/12 05:21:08;;;;;;;112.80;45.40;;;;;;;2.09;87.69;103306.31;5095441;28;20052;-65
2022/01/12 05:23:36;;;;;;;111.28;46.05;;;;;;;1.73;89.57;103296.50;5096202;28;20681;-65
2022/01/12 05:26:03;;;;;;;109.38;46.60;;;;;;;1.97;90.21;103297.00;5115469;28;20052;-64
2022/01/12 05:28:31;;;;;;;111.38;48.25;;;;;;;2.08;89.89;103285.59;5109038;28;20040;-66
2022/01/12 05:31:00;;;;;;;112.20;47.40;;;;;;;2.31;88.70;103277.22;5097079;28;20043;-65
2022/01/12 05:33:29;;;;;;;108.20;47.45;;;;;;;2.33;88.42;103264.28;5100910;28;20058;-65
2022/01/12 05:35:57;;;;;;;104.53;45.72;;;;;;;2.57;87.61;103271.16;5115864;28;20059;-64
2022/01/12 05:38:26;;;;;;;110.75;46.25;;;;;;;2.59;86.56;103269.94;5107110;28;20048;-64
2022/01/12 05:40:56;;;;;;;120.22;49.60;;;;;;;2.26;87.47;103266.97;5110531;28;20051;-64
2022/01/12 05:43:27;;;;;;;111.22;46.78;;;;;;;2.40;87.64;103273.34;5104852;28;20201;-64
2022/01/12 05:45:58;;;;;;;115.95;48.08;;;;;;;2.51;87.23;103264.63;5111153;28;20054;-65
2022/01/12 05:51:13;;;;;;;114.25;48.35;;;;;;;2.80;86.02;103269.00;5102130;28;20044;-64
2022/01/12 05:53:41;;;;;;;111.78;47.60;;;;;;;2.38;86.29;103269.13;5094319;28;20051;-64
2022/01/12 05:56:08;;;;;;;111.65;47.15;;;;;;;2.34;87.04;103271.41;5098106;28;20066;-64
2022/01/12 05:58:35;;;;;;;111.57;47.03;;;;;;;2.35;87.32;103266.81;5104819;28;20051;-64
2022/01/12 06:01:03;;;;;;;117.13;47.10;;;;;;;2.32;87.76;103278.91;5096441;28;20418;-66
2022/01/12 06:03:31;;;;;;;112.32;47.78;;;;;;;2.73;87.06;103289.91;5127565;27;20043;-64
2022/01/12 06:06:01;;;;;;;114.13;48.65;;;;;;;3.04;85.49;103298.47;5105623;28;20051;-65
2022/01/12 06:08:33;;;;;;;119.30;45.83;;;;;;;2.59;85.43;103301.72;5108480;28;20422;-64
2022/01/12 06:11:02;;;;;;;121.40;49.00;;;;;;;2.44;86.49;103295.53;5114815;28;20047;-64
2022/01/12 06:13:30;;;;;;;120.20;48.87;;;;;;;2.41;87.15;103290.50;5115403;28;20101;-65
2022/01/12 06:15:57;;;;;;;110.40;47.25;;;;;;;2.69;86.96;103281.28;5113574;27;20295;-65
2022/01/12 06:18:26;;;;;;;111.97;47.22;;;;;;;2.75;85.60;103285.94;5088948;28;20446;-65
2022/01/12 06:20:53;;;;;;;112.35;47.55;;;;;;;2.83;85.54;103279.50;5115535;27;20040;-65
2022/01/12 06:23:42;;;;;;;106.85;46.20;;;;;;;3.17;84.57;103288.47;5114358;28;20047;-63
2022/01/12 06:26:11;;;;;;;107.40;45.13;;;;;;;3.23;83.65;103289.56;5096920;28;20158;-65
2022/01/12 06:28:41;;;;;;;105.70;45.15;;;;;;;3.38;82.93;103282.09;5077613;28;20548;-64
2022/01/12 06:31:10;;;;;;;100.28;44.53;;;;;;;3.49;82.17;103286.94;5102538;28;20059;-65
2022/01/12 06:33:44;;;;;;;111.83;46.30;;;;;;;3.34;82.36;103283.53;5106583;28;20059;-65
2022/01/12 06:36:17;;;;;;;103.80;45.40;;;;;;;3.37;82.02;103275.81;5097005;28;20048;-66
2022/01/12 06:38:44;;;;;;;105.00;45.58;;;;;;;3.44;82.10;103281.28;5090100;28;20056;-65
2022/01/12 06:41:13;;;;;;;102.47;44.35;;;;;;;3.31;82.15;103295.66;5116205;28;20398;-66
2022/01/12 06:43:41;;;;;;;104.70;45.15;;;;;;;3.33;81.87;103295.47;5096826;28;20036;-65
2022/01/12 06:46:10;;;;;;;96.37;42.63;;;;;;;3.34;81.78;103287.13;5077765;28;20052;-65
2022/01/12 06:48:38;;;;;;;104.80;44.58;;;;;;;3.42;81.61;103288.81;5094910;28;20052;-65
2022/01/12 06:51:05;;;;;;;100.65;45.38;;;;;;;3.54;81.07;103287.16;5114238;28;20507;-65
2022/01/12 06:53:33;;;;;;;105.93;44.55;;;;;;;3.35;81.70;103294.22;5114738;27;20047;-65
2022/01/12 06:56:02;;;;;;;103.43;43.63;;;;;;;3.33;82.12;103290.84;5112563;27;20063;-65
2022/01/12 06:58:32;;;;;;;106.47;44.55;;;;;;;3.36;81.26;103301.34;5107464;28;20048;-64
2022/01/12 07:01:00;;;;;;;96.93;42.53;;;;;;;3.23;82.10;103312.19;5113992;28;20157;-65
2022/01/12 07:03:33;;;;;;;97.20;43.83;;;;;;;3.47;81.80;103311.66;5112611;27;20043;-64
2022/01/12 07:06:01;;;;;;;94.97;42.03;;;;;;;3.10;82.59;103301.22;5135103;27;20054;-65
2022/01/12 07:08:29;;;;;;;95.45;42.35;;;;;;;3.27;82.26;103307.19;5118365;27;20042;-64
2022/01/12 07:10:59;;;;;;;94.60;42.90;;;;;;;3.04;82.46;103310.19;5093867;28;20493;-64
2022/01/12 07:13:26;;;;;;;107.10;43.60;;;;;;;3.07;83.09;103301.63;5100026;28;20071;-65
2022/01/12 07:15:56;;;;;;;99.25;42.88;;;;;;;3.39;82.12;103302.84;5099915;28;20158;-65
2022/01/12 07:18:26;;;;;;;92.82;43.30;;;;;;;3.60;81.51;103294.53;5114545;28;20056;-65
2022/01/12 07:20:53;;;;;;;94.13;41.72;;;;;;;3.65;80.83;103293.91;5104280;28;20040;-65
2022/01/12 07:23:20;;;;;;;98.70;42.35;;;;;;;3.52;81.52;103282.97;5106932;28;20070;-64
2022/01/12 07:25:48;;;;;;;98.35;43.55;;;;;;;3.41;81.48;103287.13;5117118;28;20054;-64
2022/01/12 07:28:15;;;;;;;86.53;39.78;;;;;;;3.58;81.52;103284.88;5120777;28;20048;-66
2022/01/12 07:30:43;;;;;;;89.63;41.28;;;;;;;3.65;80.73;103278.41;5100482;28;20052;-66
2022/01/12 07:33:12;;;;;;;94.57;42.00;;;;;;;3.75;80.51;103278.84;5083446;28;20050;-65
2022/01/12 07:35:40;;;;;;;95.13;42.67;;;;;;;3.52;81.00;103293.88;5097089;28;20376;-67
2022/01/12 07:38:08;;;;;;;89.35;41.67;;;;;;;3.72;80.63;103308.41;5099313;28;20419;-68
2022/01/12 07:40:36;;;;;;;95.30;44.22;;;;;;;3.49;81.04;103316.91;5101831;28;20056;-68
2022/01/12 07:43:04;;;;;;;93.72;41.13;;;;;;;3.70;81.30;103310.47;5098048;28;20054;-68
2022/01/12 07:45:33;;;;;;;88.88;41.08;;;;;;;3.55;80.73;103318.84;5109874;28;20058;-66
2022/01/12 07:48:00;;;;;;;96.13;41.33;;;;;;;3.51;81.06;103330.31;5113882;28;20048;-65
2022/01/12 07:50:28;;;;;;;90.40;41.03;;;;;;;3.72;80.90;103327.47;5104333;28;20050;-66
2022/01/12 07:52:55;;;;;;;90.35;40.95;;;;;;;3.95;80.34;103328.81;5092589;28;20048;-65
2022/01/12 07:55:23;;;;;;;87.57;40.38;;;;;;;3.86;79.87;103345.56;5110867;28;20051;-65
2022/01/12 07:57:51;;;;;;;90.80;41.20;;;;;;;3.97;79.43;103343.09;5113236;28;20047;-66
2022/01/12 08:00:20;;;;;;;85.15;39.00;;;;;;;3.74;79.77;103349.91;5106095;28;20048;-66
2022/01/12 08:02:49;;;;;;;95.38;42.80;;;;;;;3.71;80.56;103353.06;5111567;27;20413;-65
2022/01/12 08:05:19;;;;;;;106.10;45.08;;;;;;;3.41;80.97;103360.69;5105410;28;20119;-67
2022/01/12 08:07:47;;;;;;;105.05;45.72;;;;;;;3.54;81.63;103352.56;5118126;28;20051;-66
2022/01/12 08:10:16;;;;;;;107.70;46.58;;;;;;;3.52;81.66;103349.22;5105201;28;20052;-67
2022/01/12 08:12:44;;;;;;;109.35;45.00;;;;;;;3.57;81.51;103352.19;5086430;28;20055;-67
2022/01/12 08:15:11;;;;;;;99.20;43.03;;;;;;;3.61;81.08;103375.22;5108645;28;20367;-67
2022/01/12 08:17:39;;;;;;;111.85;47.30;;;;;;;3.65;80.91;103381.13;5098175;28;20052;-66
2022/01/12 08:20:11;;;;;;;115.10;46.72;;;;;;;3.05;82.20;103382.66;5096973;28;20044;-66
2022/01/12 08:22:39;;;;;;;110.50;45.33;;;;;;;3.25;82.97;103388.25;5096055;28;20058;-66
2022/01/12 08:25:09;;;;;;;114.40;46.05;;;;;;;3.11;83.07;103400.09;5096509;28;20048;-65
2022/01/12 08:27:37;;;;;;;106.53;46.03;;;;;;;2.97;83.32;103395.59;5096333;28;20052;-65
2022/01/12 08:30:07;;;;;;;111.85;44.97;;;;;;;2.72;85.32;103400.63;5097064;28;20055;-69
2022/01/12 08:32:34;;;;;;;106.55;44.95;;;;;;;2.91;84.79;103408.09;5099770;28;20048;-65
2022/01/12 08:35:02;;;;;;;108.97;45.78;;;;;;;2.45;84.83;103411.44;5114367;27;20532;-65
2022/01/12 08:37:33;;;;;;;110.57;47.05;;;;;;;2.18;86.99;103416.63;5098344;28;20043;-65
2022/01/12 08:40:00;;;;;;;107.65;45.90;;;;;;;2.11;88.58;103423.84;5106378;28;20048;-67
2022/01/12 08:42:27;;;;;;;105.88;46.58;;;;;;;2.34;88.43;103420.97;5111935;28;20044;-66
2022/01/12 08:44:59;;;;;;;112.03;46.10;;;;;;;2.18;88.77;103432.06;5097436;28;20055;-65
2022/01/12 08:47:27;;;;;;;108.68;47.08;;;;;;;2.53;87.92;103438.53;5083186;28;20052;-66
2022/01/12 08:49:54;;;;;;;124.07;47.40;;;;;;;2.05;88.53;103440.94;5098081;28;20048;-66
2022/01/12 08:52:25;;;;;;;117.75;46.72;;;;;;;1.98;90.17;103434.59;5099958;28;20055;-64
2022/01/12 08:54:53;;;;;;;113.57;46.92;;;;;;;2.34;89.44;103433.75;5089935;28;20064;-64
2022/01/12 08:57:20;;;;;;;115.88;46.58;;;;;;;2.37;88.29;103428.75;5123323;27;20044;-64
2022/01/12 08:59:47;;;;;;;120.22;48.78;;;;;;;2.38;88.44;103429.56;5095873;28;20181;-64
2022/01/12 09:02:17;;;;;;;108.78;47.05;;;;;;;2.54;88.34;103432.06;5104691;27;20403;-64
2022/01/12 09:04:44;;;;;;;120.22;48.95;;;;;;;2.83;87.55;103434.63;5097100;28;20048;-66
2022/01/12 09:07:12;;;;;;;113.75;47.72;;;;;;;3.18;85.94;103436.38;5094902;28;20470;-65
2022/01/12 09:09:40;;;;;;;111.38;47.65;;;;;;;3.26;84.54;103441.69;5099123;28;20063;-64
2022/01/12 09:12:08;;;;;;;113.00;49.42;;;;;;;3.28;84.21;103448.59;5107896;28;20063;-64
2022/01/12 09:14:35;;;;;;;113.97;49.90;;;;;;;3.35;83.91;103449.50;5098180;28;20043;-65
2022/01/12 09:17:12;;;;;;;116.75;47.20;;;;;;;3.38;83.69;103456.44;5101207;28;20058;-66
2022/01/12 09:19:39;;;;;;;107.40;46.45;;;;;;;3.49;83.85;103449.59;5095097;28;20055;-63
2022/01/12 09:22:08;;;;;;;106.50;48.10;;;;;;;3.37;83.62;103457.47;5083760;27;20052;-63
2022/01/12 09:24:35;;;;;;;113.68;48.45;;;;;;;3.37;83.78;103469.22;5105798;28;20040;-64
2022/01/12 09:27:05;;;;;;;113.57;50.58;;;;;;;3.49;83.37;103471.41;5096746;28;20353;-64
2022/01/12 09:29:33;;;;;;;124.55;50.03;;;;;;;3.28;83.46;103483.16;5108523;28;20048;-64
2022/01/12 09:32:00;;;;;;;116.13;49.05;;;;;;;3.14;84.24;103486.81;5128722;27;20051;-64
2022/01/12 09:34:28;;;;;;;125.10;53.67;;;;;;;3.40;84.05;103496.06;5112193;27;20048;-63
2022/01/12 09:36:55;;;;;;;121.07;53.40;;;;;;;3.89;82.57;103501.41;5097012;28;20047;-64
2022/01/12 09:39:23;;;;;;;120.10;50.10;;;;;;;3.80;81.85;103507.22;5095373;28;20062;-64
2022/01/12 09:41:50;;;;;;;116.07;49.45;;;;;;;3.81;81.04;103515.19;5095445;28;20040;-63
2022/01/12 09:44:18;;;;;;;112.32;48.60;;;;;;;3.85;81.44;103521.94;5097927;28;20048;-63
2022/01/12 09:46:46;;;;;;;113.43;50.03;;;;;;;3.10;83.04;103534.56;5101379;28;20059;-64
2022/01/12 09:49:14;;;;;;;116.32;48.20;;;;;;;3.30;83.49;103522.78;5104138;27;20047;-65
2022/01/12 09:51:41;;;;;;;120.35;49.90;;;;;;;3.12;84.21;103524.31;5112705;28;20161;-66
2022/01/12 09:54:11;;;;;;;109.45;48.03;;;;;;;3.23;84.46;103524.63;5108267;27;20055;-64
2022/01/12 09:56:39;;;;;;;117.80;48.80;;;;;;;3.10;85.26;103524.50;5097001;27;20035;-65
2022/01/12 09:59:10;;;;;;;117.50;49.15;;;;;;;3.21;85.08;103520.41;5114104;28;20082;-66
2022/01/12 10:01:40;;;;;;;120.75;50.55;;;;;;;3.36;85.03;103530.16;5088850;28;20056;-64
2022/01/12 10:04:18;;;;;;;114.38;50.63;;;;;;;3.65;84.29;103515.50;5120208;27;20040;-64
2022/01/12 10:06:56;;;;;;;124.97;49.83;;;;;;;3.87;82.94;103522.56;5095781;28;20036;-64
2022/01/12 10:09:38;;;;;;;113.05;48.03;;;;;;;4.00;82.06;103519.06;5098722;28;20063;-65
2022/01/12 10:12:14;;;;;;;113.05;49.45;;;;;;;3.95;81.51;103516.97;5096234;28;20059;-65
2022/01/12 10:14:50;;;;;;;114.95;49.17;;;;;;;4.02;81.21;103506.94;5109227;28;20044;-65
2022/01/12 10:17:29;;;;;;;115.88;50.83;;;;;;;4.05;81.21;103511.97;5114434;28;20040;-64
2022/01/12 10:20:11;;;;;;;113.78;49.45;;;;;;;3.97;81.25;103517.59;5111049;28;20054;-65
2022/01/12 10:22:43;;;;;;;112.78;47.25;;;;;;;4.05;81.38;103513.84;5116185;28;20054;-66
2022/01/12 10:25:19;;;;;;;113.53;48.65;;;;;;;4.37;80.13;103519.47;5101056;28;20048;-66
2022/01/12 10:27:48;;;;;;;117.93;49.78;;;;;;;4.35;79.35;103512.53;5096891;28;20052;-66
2022/01/12 10:30:26;;;;;;;112.57;49.38;;;;;;;4.21;79.66;103518.97;5115072;28;20048;-65
2022/01/12 10:33:07;;;;;;;115.90;49.13;;;;;;;3.90;81.16;103526.78;5120721;27;20048;-66
2022/01/12 10:35:40;;;;;;;121.13;49.70;;;;;;;3.60;82.27;103518.00;5117073;27;20425;-65
2022/01/12 10:38:13;;;;;;;121.15;51.00;;;;;;;3.66;82.99;103519.91;5094947;28;20050;-66
2022/01/12 10:40:43;;;;;;;113.60;50.42;;;;;;;4.11;81.76;103513.91;5102565;28;20083;-65
2022/01/12 10:43:47;;;;;;;110.95;48.75;;;;;;;4.41;80.13;103514.44;5109007;28;20055;-66
2022/01/12 10:46:17;;;;;;;119.38;50.20;;;;;;;4.25;80.28;103521.06;5094165;28;20062;-66
2022/01/12 10:48:50;;;;;;;111.15;47.90;;;;;;;4.27;80.27;103508.06;5105400;28;20043;-65
2022/01/12 10:51:19;;;;;;;108.10;48.45;;;;;;;4.50;80.21;103515.94;5100845;27;20051;-65
2022/01/12 10:53:51;;;;;;;105.43;47.30;;;;;;;4.19;80.20;103507.41;5108703;27;23629;-65
2022/01/12 10:56:20;;;;;;;105.13;47.92;;;;;;;4.10;80.56;103514.09;5105162;28;20550;-64
2022/01/12 10:58:50;;;;;;;110.75;50.53;;;;;;;4.18;81.12;103503.03;5099395;28;20043;-66
2022/01/12 11:01:21;;;;;;;109.07;49.40;;;;;;;4.73;79.87;103510.09;5086028;27;20441;-64
2022/01/12 11:03:49;;;;;;;122.13;49.67;;;;;;;4.46;79.51;103518.22;5104123;28;20046;-65
2022/01/12 11:06:17;;;;;;;101.32;46.83;;;;;;;4.26;80.46;103525.50;5108327;28;20414;-65
2022/01/12 11:08:47;;;;;;;106.57;48.67;;;;;;;3.90;81.49;103522.19;5102946;28;20055;-66
2022/01/12 11:11:19;;;;;;;110.50;47.35;;;;;;;3.88;82.46;103529.72;5106857;28;20051;-64
2022/01/12 11:13:53;;;;;;;105.28;50.67;;;;;;;4.24;82.43;103527.59;5099103;28;20036;-64
2022/01/12 11:16:26;;;;;;;117.35;53.10;;;;;;;4.19;81.22;103526.50;5096092;28;20050;-64
2022/01/12 11:18:55;;;;;;;111.15;48.90;;;;;;;4.22;81.22;103537.84;5086765;28;20052;-64
2022/01/12 11:21:28;;;;;;;102.35;47.58;;;;;;;4.17;81.23;103524.00;5112086;28;20054;-64
2022/01/12 11:23:57;;;;;;;104.53;46.45;;;;;;;4.49;80.77;103526.03;5106849;28;20527;-64
2022/01/12 11:26:30;;;;;;;100.68;47.95;;;;;;;4.23;80.35;103512.28;5115655;28;20380;-64
2022/01/12 11:28:58;;;;;;;110.18;49.03;;;;;;;4.08;81.35;103516.19;5093822;28;20055;-65
2022/01/12 11:31:31;;;;;;;101.07;46.95;;;;;;;3.89;82.17;103515.03;5113325;28;20047;-67
2022/01/12 11:33:59;;;;;;;113.78;48.85;;;;;;;4.05;81.42;103511.97;5097999;28;20063;-67
2022/01/12 11:36:34;;;;;;;94.20;44.60;;;;;;;4.38;80.76;103520.28;5103487;28;20051;-68
2022/01/12 11:39:08;;;;;;;99.65;48.03;;;;;;;4.13;80.39;103510.97;5114267;28;20634;-67
2022/01/12 11:41:38;;;;;;;95.50;44.30;;;;;;;4.63;79.73;103520.59;5099765;28;20040;-67
2022/01/12 11:44:12;;;;;;;122.32;52.03;;;;;;;4.48;79.62;103515.31;5109274;28;21554;-65
2022/01/12 11:46:47;;;;;;;101.30;46.05;;;;;;;4.43;79.07;103513.19;5099865;28;20040;-66
2022/01/12 11:49:29;;;;;;;94.45;47.17;;;;;;;4.69;78.44;103511.59;5104177;28;20066;-66
2022/01/12 11:52:12;;;;;;;108.93;45.28;;;;;;;4.37;78.39;103513.16;5105761;28;20499;-67
2022/01/12 11:54:45;;;;;;;89.28;43.40;;;;;;;4.14;79.98;103505.31;5096483;28;20144;-67
2022/01/12 11:57:18;;;;;;;92.60;45.55;;;;;;;4.53;79.35;103507.34;5103123;28;20036;-66
2022/01/12 11:59:58;;;;;;;88.55;43.40;;;;;;;4.73;78.46;103497.31;5099583;28;20056;-68
2022/01/12 12:02:38;;;;;;;87.03;43.03;;;;;;;4.52;78.49;103494.72;5110097;27;20051;-68
2022/01/12 12:05:08;;;;;;;89.35;43.20;;;;;;;4.92;77.83;103491.03;5101592;28;20047;-68
2022/01/12 12:08:08;;;;;;;87.13;42.33;;;;;;;4.92;77.09;103490.19;5115095;28;20055;-66
2022/01/12 12:10:41;;;;;;;77.80;40.30;;;;;;;4.93;76.78;103486.41;5078583;28;20051;-66
2022/01/12 12:13:11;;;;;;;82.00;40.47;;;;;;;4.92;77.08;103495.63;5108971;28;20085;-66
2022/01/12 12:15:39;;;;;;;79.82;41.10;;;;;;;4.75;77.12;103486.16;5110083;28;20040;-66
2022/01/12 12:18:07;;;;;;;78.80;41.03;;;;;;;4.90;76.95;103487.66;5112613;28;20048;-66
2022/01/12 12:20:34;;;;;;;85.90;42.00;;;;;;;4.84;76.74;103483.06;5100199;27;20050;-69
2022/01/12 12:23:02;;;;;;;77.88;38.53;;;;;;;4.32;78.43;103482.94;5111637;28;20043;-67
2022/01/12 12:25:31;;;;;;;73.57;38.90;;;;;;;4.85;77.86;103482.00;5106468;28;20044;-66
2022/01/12 12:28:01;;;;;;;75.93;38.67;;;;;;;4.56;77.71;103479.63;5108470;28;20047;-67
2022/01/12 12:30:31;;;;;;;;;;;;;;;4.48;78.30;103480.66;5105752;27;20743;-67
2022/01/12 12:33:08;;;;;;;80.07;38.72;;;;;;;4.22;79.22;103479.75;5106597;27;19919;-65
2022/01/12 12:35:37;;;;;;;74.53;37.45;;;;;;;4.64;79.01;103473.97;5108370;27;20044;-66
2022/01/12 12:38:09;;;;;;;87.17;39.30;;;;;;;4.95;77.44;103468.75;5108455;28;20039;-65
2022/01/12 12:40:39;;;;;;;82.00;39.38;;;;;;;5.15;76.29;103460.56;5097257;28;20298;-65
2022/01/12 12:43:19;;;;;;;70.82;38.17;;;;;;;5.26;75.59;103459.94;5099189;28;20059;-67
2022/01/12 12:45:51;;;;;;;;;;;;;;;5.08;75.38;103459.72;5098773;28;20055;-65
2022/01/12 12:48:21;;;;;;;73.80;38.08;;;;;;;4.98;76.26;103446.50;5095506;28;19926;-66